sensor_id;sensor_type;location;lat;lon;timestamp;pressure;altitude;pressure_sealevel;temperature;humidity
8069;BME280;4077;43.702;24.896;2023-05-12T00:02:06;99899.53;;;10.94;96.63
8069;BME280;4077;43.702;24.896;2023-05-12T00:04:31;99849.75;;;10.52;100.00
8069;BME280;4077;43.702;24.896;2023-05-12T00:06:57;99905.34;;;10.81;100.00
8069;BME280;4077;43.702;24.896;2023-05-12T00:09:22;99896.56;;;10.72;100.00
8069;BME280;4077;43.702;24.896;2023-05-12T00:11:48;99877.63;;;10.71;100.00
8069;BME280;4077;43.702;24.896;2023-05-12T00:14:14;99870.78;;;10.75;100.00
8069;BME280;4077;43.702;24.896;2023-05-12T00:16:39;99876.78;;;10.72;100.00
8069;BME280;4077;43.702;24.896;2023-05-12T00:19:05;99898.56;;;10.88;100.00
8069;BME280;4077;43.702;24.896;2023-05-12T00:21:33;99906.44;;;10.95;100.00
8069;BME280;4077;43.702;24.896;2023-05-12T00:23:59;99903.91;;;10.99;100.00
8069;BME280;4077;43.702;24.896;2023-05-12T00:26:24;99872.50;;;10.74;100.00
8069;BME280;4077;43.702;24.896;2023-05-12T00:28:51;99883.91;;;10.85;100.00
8069;BME280;4077;43.702;24.896;2023-05-12T00:31:16;99886.19;;;10.70;100.00
8069;BME280;4077;43.702;24.896;2023-05-12T00:33:42;99875.69;;;10.58;100.00
8069;BME280;4077;43.702;24.896;2023-05-12T00:36:08;99892.22;;;10.69;100.00
8069;BME280;4077;43.702;24.896;2023-05-12T00:38:33;99898.31;;;10.74;100.00
8069;BME280;4077;43.702;24.896;2023-05-12T00:41:00;99900.06;;;10.75;100.00
8069;BME280;4077;43.702;24.896;2023-05-12T00:43:25;99879.78;;;10.47;100.00
8069;BME280;4077;43.702;24.896;2023-05-12T00:45:51;99909.63;;;10.79;100.00
8069;BME280;4077;43.702;24.896;2023-05-12T00:48:17;99865.25;;;10.52;100.00
8069;BME280;4077;43.702;24.896;2023-05-12T00:50:43;99896.44;;;10.64;100.00
8069;BME280;4077;43.702;24.896;2023-05-12T00:53:08;99909.53;;;10.76;100.00
8069;BME280;4077;43.702;24.896;2023-05-12T00:55:34;99901.13;;;10.86;100.00
8069;BME280;4077;43.702;24.896;2023-05-12T00:58:01;99887.16;;;10.75;100.00
8069;BME280;4077;43.702;24.896;2023-05-12T01:00:26;99898.47;;;10.82;100.00
8069;BME280;4077;43.702;24.896;2023-05-12T01:02:54;99909.88;;;10.94;100.00
8069;BME280;4077;43.702;24.896;2023-05-12T01:05:21;99903.00;;;10.96;100.00
8069;BME280;4077;43.702;24.896;2023-05-12T01:07:47;99901.34;;;10.99;100.00
8069;BME280;4077;43.702;24.896;2023-05-12T01:10:20;99892.63;;;10.93;100.00
8069;BME280;4077;43.702;24.896;2023-05-12T01:12:46;99905.34;;;10.81;100.00
8069;BME280;4077;43.702;24.896;2023-05-12T01:15:11;99878.66;;;10.82;100.00
8069;BME280;4077;43.702;24.896;2023-05-12T01:17:39;99890.91;;;10.92;100.00
8069;BME280;4077;43.702;24.896;2023-05-12T01:20:07;99908.94;;;10.91;100.00
8069;BME280;4077;43.702;24.896;2023-05-12T01:22:34;99869.94;;;10.74;100.00
8069;BME280;4077;43.702;24.896;2023-05-12T01:25:03;99893.38;;;10.85;100.00
8069;BME280;4077;43.702;24.896;2023-05-12T01:27:30;99888.19;;;10.85;100.00
8069;BME280;4077;43.702;24.896;2023-05-12T01:30:00;99890.91;;;10.94;100.00
8069;BME280;4077;43.702;24.896;2023-05-12T01:32:27;99906.34;;;10.89;100.00
8069;BME280;4077;43.702;24.896;2023-05-12T01:34:53;99900.28;;;10.89;100.00
8069;BME280;4077;43.702;24.896;2023-05-12T01:37:19;99915.78;;;10.87;100.00
8069;BME280;4077;43.702;24.896;2023-05-12T01:39:44;99911.38;;;10.83;100.00
8069;BME280;4077;43.702;24.896;2023-05-12T01:42:10;99912.19;;;10.79;100.00
8069;BME280;4077;43.702;24.896;2023-05-12T01:44:35;99909.59;;;10.78;100.00
8069;BME280;4077;43.702;24.896;2023-05-12T01:47:01;99909.84;;;10.91;100.00
8069;BME280;4077;43.702;24.896;2023-05-12T01:49:27;99904.56;;;10.85;100.00
8069;BME280;4077;43.702;24.896;2023-05-12T01:51:52;99882.00;;;10.75;100.00
8069;BME280;4077;43.702;24.896;2023-05-12T01:54:18;99901.13;;;10.86;100.00
8069;BME280;4077;43.702;24.896;2023-05-12T01:56:43;99883.53;;;10.64;100.00
8069;BME280;4077;43.702;24.896;2023-05-12T01:59:09;99894.16;;;10.82;100.00
8069;BME280;4077;43.702;24.896;2023-05-12T02:01:35;99898.34;;;10.76;100.00
8069;BME280;4077;43.702;24.896;2023-05-12T02:04:01;99899.41;;;10.85;100.00
8069;BME280;4077;43.702;24.896;2023-05-12T02:06:27;99895.84;;;10.80;100.00
8069;BME280;4077;43.702;24.896;2023-05-12T02:08:53;99899.03;;;10.65;100.00
8069;BME280;4077;43.702;24.896;2023-05-12T02:11:18;99894.75;;;10.66;100.00
8069;BME280;4077;43.702;24.896;2023-05-12T02:13:44;99905.94;;;10.65;100.00
8069;BME280;4077;43.702;24.896;2023-05-12T02:16:10;99890.44;;;10.65;100.00
8069;BME280;4077;43.702;24.896;2023-05-12T02:18:35;99903.16;;;10.56;100.00
8069;BME280;4077;43.702;24.896;2023-05-12T02:21:01;99901.38;;;10.52;100.00
8069;BME280;4077;43.702;24.896;2023-05-12T02:23:27;99896.00;;;10.41;100.00
8069;BME280;4077;43.702;24.896;2023-05-12T02:25:52;99901.91;;;10.35;100.00
8069;BME280;4077;43.702;24.896;2023-05-12T02:28:18;99903.56;;;10.30;100.00
8069;BME280;4077;43.702;24.896;2023-05-12T02:30:48;99899.41;;;10.38;100.00
8069;BME280;4077;43.702;24.896;2023-05-12T02:33:18;99905.44;;;10.39;100.00
8069;BME280;4077;43.702;24.896;2023-05-12T02:35:44;99907.09;;;10.35;100.00
8069;BME280;4077;43.702;24.896;2023-05-12T02:38:10;99896.75;;;10.35;100.00
8069;BME280;4077;43.702;24.896;2023-05-12T02:40:35;99909.91;;;10.49;100.00
8069;BME280;4077;43.702;24.896;2023-05-12T02:43:01;99904.75;;;10.49;100.00
8069;BME280;4077;43.702;24.896;2023-05-12T02:45:27;99884.78;;;10.37;100.00
8069;BME280;4077;43.702;24.896;2023-05-12T02:47:52;99906.28;;;10.38;100.00
8069;BME280;4077;43.702;24.896;2023-05-12T02:50:18;99896.81;;;10.37;100.00
8069;BME280;4077;43.702;24.896;2023-05-12T02:52:46;99897.59;;;10.34;100.00
8069;BME280;4077;43.702;24.896;2023-05-12T02:55:11;99912.56;;;10.51;100.00
8069;BME280;4077;43.702;24.896;2023-05-12T02:57:37;99910.84;;;10.53;100.00
8069;BME280;4077;43.702;24.896;2023-05-12T03:00:03;99911.63;;;10.47;100.00
8069;BME280;4077;43.702;24.896;2023-05-12T03:02:34;99907.03;;;10.32;100.00
8069;BME280;4077;43.702;24.896;2023-05-12T03:05:00;99923.47;;;10.37;100.00
8069;BME280;4077;43.702;24.896;2023-05-12T03:07:26;99909.38;;;10.22;100.00
8069;BME280;4077;43.702;24.896;2023-05-12T03:09:51;99923.38;;;10.33;100.00
8069;BME280;4077;43.702;24.896;2023-05-12T03:12:17;99925.22;;;10.38;100.00
8069;BME280;4077;43.702;24.896;2023-05-12T03:14:42;99932.88;;;10.35;100.00
8069;BME280;4077;43.702;24.896;2023-05-12T03:17:08;99896.59;;;10.26;100.00
8069;BME280;4077;43.702;24.896;2023-05-12T03:19:33;99931.22;;;10.37;100.00
8069;BME280;4077;43.702;24.896;2023-05-12T03:22:00;99918.13;;;10.28;100.00
8069;BME280;4077;43.702;24.896;2023-05-12T03:24:25;99930.84;;;10.21;100.00
8069;BME280;4077;43.702;24.896;2023-05-12T03:26:51;99923.69;;;10.06;100.00
8069;BME280;4077;43.702;24.896;2023-05-12T03:29:16;99930.66;;;10.10;100.00
8069;BME280;4077;43.702;24.896;2023-05-12T03:31:42;99932.66;;;10.23;100.00
8069;BME280;4077;43.702;24.896;2023-05-12T03:34:07;99934.41;;;10.24;100.00
8069;BME280;4077;43.702;24.896;2023-05-12T03:36:33;99941.13;;;10.19;100.00
8069;BME280;4077;43.702;24.896;2023-05-12T03:38:58;99944.56;;;10.18;100.00
8069;BME280;4077;43.702;24.896;2023-05-12T03:41:24;99952.88;;;10.05;100.00
8069;BME280;4077;43.702;24.896;2023-05-12T03:43:49;99928.38;;;9.83;100.00
8069;BME280;4077;43.702;24.896;2023-05-12T03:46:15;99933.84;;;10.00;100.00
8069;BME280;4077;43.702;24.896;2023-05-12T03:48:40;99954.63;;;10.06;100.00
8069;BME280;4077;43.702;24.896;2023-05-12T03:51:06;99961.66;;;10.13;100.00
8069;BME280;4077;43.702;24.896;2023-05-12T03:53:31;99960.19;;;10.24;100.00
8069;BME280;4077;43.702;24.896;2023-05-12T03:55:57;99956.66;;;10.22;100.00
8069;BME280;4077;43.702;24.896;2023-05-12T03:58:22;99968.66;;;10.20;100.00
8069;BME280;4077;43.702;24.896;2023-05-12T04:00:48;99959.34;;;10.25;100.00
8069;BME280;4077;43.702;24.896;2023-05-12T04:03:15;99978.53;;;10.36;100.00
8069;BME280;4077;43.702;24.896;2023-05-12T04:05:41;99971.53;;;10.32;100.00
8069;BME280;4077;43.702;24.896;2023-05-12T04:08:10;99971.56;;;10.34;100.00
8069;BME280;4077;43.702;24.896;2023-05-12T04:10:39;99939.59;;;10.27;100.00
8069;BME280;4077;43.702;24.896;2023-05-12T04:13:05;99975.38;;;10.51;100.00
8069;BME280;4077;43.702;24.896;2023-05-12T04:15:35;99956.94;;;10.33;100.00
8069;BME280;4077;43.702;24.896;2023-05-12T04:18:01;99982.72;;;10.31;100.00
8069;BME280;4077;43.702;24.896;2023-05-12T04:20:27;99969.78;;;10.30;100.00
8069;BME280;4077;43.702;24.896;2023-05-12T04:22:53;99979.41;;;10.38;100.00
8069;BME280;4077;43.702;24.896;2023-05-12T04:25:18;99987.31;;;10.48;100.00
8069;BME280;4077;43.702;24.896;2023-05-12T04:27:44;99991.44;;;10.38;100.00
8069;BME280;4077;43.702;24.896;2023-05-12T04:30:09;99995.66;;;10.34;100.00
8069;BME280;4077;43.702;24.896;2023-05-12T04:32:35;100001.75;;;10.36;100.00
8069;BME280;4077;43.702;24.896;2023-05-12T04:35:00;99997.53;;;10.41;100.00
8069;BME280;4077;43.702;24.896;2023-05-12T04:37:26;99988.88;;;10.38;100.00
8069;BME280;4077;43.702;24.896;2023-05-12T04:39:51;100006.38;;;10.54;100.00
8069;BME280;4077;43.702;24.896;2023-05-12T04:42:17;100007.34;;;10.59;100.00
8069;BME280;4077;43.702;24.896;2023-05-12T04:44:43;100001.06;;;10.45;100.00
8069;BME280;4077;43.702;24.896;2023-05-12T04:47:11;100008.69;;;10.40;100.00
8069;BME280;4077;43.702;24.896;2023-05-12T04:49:36;100011.41;;;10.48;100.00
8069;BME280;4077;43.702;24.896;2023-05-12T04:52:02;100013.97;;;10.47;100.00
8069;BME280;4077;43.702;24.896;2023-05-12T04:54:29;100006.09;;;10.40;100.00
8069;BME280;4077;43.702;24.896;2023-05-12T04:56:54;100015.56;;;10.40;100.00
8069;BME280;4077;43.702;24.896;2023-05-12T04:59:20;100015.78;;;10.51;100.00
8069;BME280;4077;43.702;24.896;2023-05-12T05:01:45;100009.69;;;10.47;100.00
8069;BME280;4077;43.702;24.896;2023-05-12T05:04:11;100021.13;;;10.60;100.00
8069;BME280;4077;43.702;24.896;2023-05-12T05:06:36;100027.91;;;10.55;100.00
8069;BME280;4077;43.702;24.896;2023-05-12T05:09:02;100028.91;;;10.63;100.00
8069;BME280;4077;43.702;24.896;2023-05-12T05:11:27;100028.84;;;10.57;100.00
8069;BME280;4077;43.702;24.896;2023-05-12T05:13:53;100031.41;;;10.57;100.00
8069;BME280;4077;43.702;24.896;2023-05-12T05:16:18;100013.00;;;10.41;100.00
8069;BME280;4077;43.702;24.896;2023-05-12T05:18:44;100030.31;;;10.46;100.00
8069;BME280;4077;43.702;24.896;2023-05-12T05:21:12;100023.47;;;10.48;100.00
8069;BME280;4077;43.702;24.896;2023-05-12T05:23:40;100031.28;;;10.51;100.00
8069;BME280;4077;43.702;24.896;2023-05-12T05:26:09;100012.00;;;10.33;100.00
8069;BME280;4077;43.702;24.896;2023-05-12T05:28:35;100031.06;;;10.41;100.00
8069;BME280;4077;43.702;24.896;2023-05-12T05:31:00;100036.50;;;10.54;100.00
8069;BME280;4077;43.702;24.896;2023-05-12T05:33:26;100043.47;;;10.58;100.00
8069;BME280;4077;43.702;24.896;2023-05-12T05:35:51;100036.63;;;10.60;100.00
8069;BME280;4077;43.702;24.896;2023-05-12T05:38:17;100041.06;;;10.67;100.00
8069;BME280;4077;43.702;24.896;2023-05-12T05:40:43;100042.91;;;10.73;100.00
8069;BME280;4077;43.702;24.896;2023-05-12T05:43:08;100040.38;;;10.77;100.00
8069;BME280;4077;43.702;24.896;2023-05-12T05:45:33;100040.31;;;10.71;100.00
8069;BME280;4077;43.702;24.896;2023-05-12T05:48:00;100045.56;;;10.77;100.00
8069;BME280;4077;43.702;24.896;2023-05-12T05:50:25;100044.69;;;10.77;100.00
8069;BME280;4077;43.702;24.896;2023-05-12T05:52:51;100041.22;;;10.75;100.00
8069;BME280;4077;43.702;24.896;2023-05-12T05:55:16;100047.19;;;10.72;100.00
8069;BME280;4077;43.702;24.896;2023-05-12T05:57:42;100047.50;;;10.87;100.00
8069;BME280;4077;43.702;24.896;2023-05-12T06:00:07;100048.63;;;11.03;100.00
8069;BME280;4077;43.702;24.896;2023-05-12T06:02:34;100037.50;;;11.06;100.00
8069;BME280;4077;43.702;24.896;2023-05-12T06:05:01;100046.16;;;11.08;100.00
8069;BME280;4077;43.702;24.896;2023-05-12T06:07:26;100037.56;;;11.09;100.00
8069;BME280;4077;43.702;24.896;2023-05-12T06:09:52;100054.06;;;11.18;100.00
8069;BME280;4077;43.702;24.896;2023-05-12T06:12:18;100049.13;;;11.29;100.00
8069;BME280;4077;43.702;24.896;2023-05-12T06:14:44;100052.53;;;11.28;100.00
8069;BME280;4077;43.702;24.896;2023-05-12T06:17:09;100058.22;;;11.59;100.00
8069;BME280;4077;43.702;24.896;2023-05-12T06:19:35;100061.72;;;11.61;100.00
8069;BME280;4077;43.702;24.896;2023-05-12T06:22:00;100055.06;;;11.76;100.00
8069;BME280;4077;43.702;24.896;2023-05-12T06:24:26;100053.34;;;11.75;100.00
8069;BME280;4077;43.702;24.896;2023-05-12T06:26:51;100059.38;;;11.76;100.00
8069;BME280;4077;43.702;24.896;2023-05-12T06:29:16;100057.53;;;11.69;100.00
8069;BME280;4077;43.702;24.896;2023-05-12T06:31:42;100072.31;;;11.76;100.00
8069;BME280;4077;43.702;24.896;2023-05-12T06:34:08;100073.94;;;11.69;100.00
8069;BME280;4077;43.702;24.896;2023-05-12T06:36:33;100082.78;;;11.82;100.00
8069;BME280;4077;43.702;24.896;2023-05-12T06:38:59;100083.69;;;11.84;100.00
8069;BME280;4077;43.702;24.896;2023-05-12T06:41:24;100062.00;;;11.79;100.00
8069;BME280;4077;43.702;24.896;2023-05-12T06:43:50;100076.97;;;11.95;100.00
8069;BME280;4077;43.702;24.896;2023-05-12T06:46:17;100085.63;;;12.00;100.00
8069;BME280;4077;43.702;24.896;2023-05-12T06:48:42;100076.59;;;11.74;100.00
8069;BME280;4077;43.702;24.896;2023-05-12T06:51:08;100086.25;;;11.84;100.00
8069;BME280;4077;43.702;24.896;2023-05-12T06:53:33;100094.03;;;11.86;100.00
8069;BME280;4077;43.702;24.896;2023-05-12T06:56:03;100094.09;;;11.87;100.00
8069;BME280;4077;43.702;24.896;2023-05-12T06:58:29;100099.06;;;11.78;100.00
8069;BME280;4077;43.702;24.896;2023-05-12T07:00:54;100104.38;;;11.86;100.00
8069;BME280;4077;43.702;24.896;2023-05-12T07:03:20;100089.59;;;11.80;100.00
8069;BME280;4077;43.702;24.896;2023-05-12T07:05:45;100093.13;;;11.82;100.00
8069;BME280;4077;43.702;24.896;2023-05-12T07:08:11;100103.38;;;11.77;100.00
8069;BME280;4077;43.702;24.896;2023-05-12T07:10:36;100103.59;;;11.90;100.00
8069;BME280;4077;43.702;24.896;2023-05-12T07:13:02;100097.72;;;12.00;100.00
8069;BME280;4077;43.702;24.896;2023-05-12T07:15:28;100074.25;;;11.88;100.00
8069;BME280;4077;43.702;24.896;2023-05-12T07:17:53;100105.34;;;11.92;100.00
8069;BME280;4077;43.702;24.896;2023-05-12T07:20:20;100089.91;;;11.95;100.00
8069;BME280;4077;43.702;24.896;2023-05-12T07:22:46;100068.22;;;11.87;100.00
8069;BME280;4077;43.702;24.896;2023-05-12T07:25:12;100092.53;;;11.98;100.00
8069;BME280;4077;43.702;24.896;2023-05-12T07:27:37;100083.03;;;11.97;100.00
8069;BME280;4077;43.702;24.896;2023-05-12T07:30:04;100096.19;;;12.13;100.00
8069;BME280;4077;43.702;24.896;2023-05-12T07:32:30;100100.19;;;11.94;100.00
8069;BME280;4077;43.702;24.896;2023-05-12T07:34:56;100105.53;;;12.03;100.00
8069;BME280;4077;43.702;24.896;2023-05-12T07:37:21;100097.75;;;12.01;100.00
8069;BME280;4077;43.702;24.896;2023-05-12T07:39:47;100098.84;;;12.17;100.00
8069;BME280;4077;43.702;24.896;2023-05-12T07:42:12;100104.22;;;12.29;100.00
8069;BME280;4077;43.702;24.896;2023-05-12T07:44:38;100102.50;;;12.33;100.00
8069;BME280;4077;43.702;24.896;2023-05-12T07:47:03;100103.41;;;12.35;100.00
8069;BME280;4077;43.702;24.896;2023-05-12T07:49:29;100098.22;;;12.35;100.00
8069;BME280;4077;43.702;24.896;2023-05-12T07:51:55;100107.03;;;12.46;100.00
8069;BME280;4077;43.702;24.896;2023-05-12T07:54:20;100108.03;;;12.56;100.00
8069;BME280;4077;43.702;24.896;2023-05-12T07:56:46;100102.03;;;12.62;100.00
8069;BME280;4077;43.702;24.896;2023-05-12T07:59:11;100109.03;;;12.69;100.00
8069;BME280;4077;43.702;24.896;2023-05-12T08:01:38;100105.81;;;12.88;100.00
8069;BME280;4077;43.702;24.896;2023-05-12T08:04:04;100105.81;;;12.88;100.00
8069;BME280;4077;43.702;24.896;2023-05-12T08:06:30;100110.31;;;13.01;100.00
8069;BME280;4077;43.702;24.896;2023-05-12T08:08:56;100102.50;;;12.98;100.00
8069;BME280;4077;43.702;24.896;2023-05-12T08:11:23;100110.38;;;13.06;100.00
8069;BME280;4077;43.702;24.896;2023-05-12T08:13:48;100105.38;;;13.21;100.00
8069;BME280;4077;43.702;24.896;2023-05-12T08:16:14;100097.81;;;13.44;100.00
8069;BME280;4077;43.702;24.896;2023-05-12T08:18:39;100104.00;;;13.58;100.00
8069;BME280;4077;43.702;24.896;2023-05-12T08:21:05;100114.66;;;13.87;100.00
8069;BME280;4077;43.702;24.896;2023-05-12T08:23:30;100115.72;;;14.15;100.00
8069;BME280;4077;43.702;24.896;2023-05-12T08:25:56;100115.03;;;14.44;100.00
8069;BME280;4077;43.702;24.896;2023-05-12T08:28:21;100116.00;;;14.55;100.00
8069;BME280;4077;43.702;24.896;2023-05-12T08:30:47;100126.47;;;14.73;100.00
8069;BME280;4077;43.702;24.896;2023-05-12T08:33:16;100130.00;;;14.83;100.00
8069;BME280;4077;43.702;24.896;2023-05-12T08:35:42;100123.00;;;14.71;100.00
8069;BME280;4077;43.702;24.896;2023-05-12T08:38:13;100121.41;;;15.01;100.00
8069;BME280;4077;43.702;24.896;2023-05-12T08:41:41;100135.25;;;15.00;97.15
8069;BME280;4077;43.702;24.896;2023-05-12T08:43:50;100124.88;;;14.97;94.63
8069;BME280;4077;43.702;24.896;2023-05-12T08:46:16;100124.00;;;14.96;93.75
8069;BME280;4077;43.702;24.896;2023-05-12T08:48:44;100129.28;;;15.24;94.08
8069;BME280;4077;43.702;24.896;2023-05-12T08:51:12;100124.97;;;15.24;92.31
8069;BME280;4077;43.702;24.896;2023-05-12T08:53:39;100124.09;;;15.31;90.84
8069;BME280;4077;43.702;24.896;2023-05-12T08:56:07;100133.66;;;15.39;90.12
8069;BME280;4077;43.702;24.896;2023-05-12T08:58:34;100128.41;;;15.26;90.62
8069;BME280;4077;43.702;24.896;2023-05-12T09:01:02;100123.25;;;15.45;91.69
8069;BME280;4077;43.702;24.896;2023-05-12T09:03:29;100126.81;;;15.65;88.36
8069;BME280;4077;43.702;24.896;2023-05-12T09:05:57;100118.13;;;15.75;87.56
8069;BME280;4077;43.702;24.896;2023-05-12T09:08:24;100118.97;;;15.97;85.37
8069;BME280;4077;43.702;24.896;2023-05-12T09:10:50;100118.09;;;15.63;83.99
8069;BME280;4077;43.702;24.896;2023-05-12T09:13:20;100112.94;;;15.78;82.66
8069;BME280;4077;43.702;24.896;2023-05-12T09:15:48;100099.00;;;15.61;83.75
8069;BME280;4077;43.702;24.896;2023-05-12T09:18:17;100113.78;;;15.70;83.65
8069;BME280;4077;43.702;24.896;2023-05-12T09:20:42;100100.75;;;15.71;82.11
8069;BME280;4077;43.702;24.896;2023-05-12T09:23:16;100100.75;;;15.85;81.29
8069;BME280;4077;43.702;24.896;2023-05-12T09:25:42;100092.06;;;15.63;81.11
8069;BME280;4077;43.702;24.896;2023-05-12T09:28:08;100115.53;;;15.78;79.56
8069;BME280;4077;43.702;24.896;2023-05-12T09:30:33;100100.78;;;15.80;80.12
8069;BME280;4077;43.702;24.896;2023-05-12T09:33:09;100111.00;;;16.84;77.27
8069;BME280;4077;43.702;24.896;2023-05-12T09:35:42;100118.75;;;17.01;71.70
8069;BME280;4077;43.702;24.896;2023-05-12T09:38:09;100109.22;;;16.99;71.88
8069;BME280;4077;43.702;24.896;2023-05-12T09:40:34;100108.44;;;16.66;72.87
8069;BME280;4077;43.702;24.896;2023-05-12T09:43:01;100115.50;;;16.18;73.79
8069;BME280;4077;43.702;24.896;2023-05-12T09:45:26;100097.28;;;15.88;76.97
8069;BME280;4077;43.702;24.896;2023-05-12T09:47:52;100101.63;;;15.66;76.75
8069;BME280;4077;43.702;24.896;2023-05-12T09:50:18;100106.81;;;15.59;77.66
8069;BME280;4077;43.702;24.896;2023-05-12T09:52:44;100097.25;;;15.54;77.89
8069;BME280;4077;43.702;24.896;2023-05-12T09:55:11;100096.41;;;15.64;77.38
8069;BME280;4077;43.702;24.896;2023-05-12T09:57:42;100093.78;;;15.55;77.91
8069;BME280;4077;43.702;24.896;2023-05-12T10:00:12;100091.19;;;15.58;79.58
8069;BME280;4077;43.702;24.896;2023-05-12T10:02:41;100090.31;;;15.53;76.50
8069;BME280;4077;43.702;24.896;2023-05-12T10:05:16;100101.59;;;15.55;74.30
8069;BME280;4077;43.702;24.896;2023-05-12T10:07:44;100076.44;;;15.45;72.22
8069;BME280;4077;43.702;24.896;2023-05-12T10:10:14;100099.91;;;15.75;72.72
8069;BME280;4077;43.702;24.896;2023-05-12T10:12:42;100102.50;;;15.72;70.66
8069;BME280;4077;43.702;24.896;2023-05-12T10:15:09;100105.13;;;15.80;70.24
8069;BME280;4077;43.702;24.896;2023-05-12T10:17:36;100109.47;;;15.79;70.50
8069;BME280;4077;43.702;24.896;2023-05-12T10:20:02;100102.50;;;15.78;71.24
8069;BME280;4077;43.702;24.896;2023-05-12T10:22:32;100089.47;;;15.63;68.29
8069;BME280;4077;43.702;24.896;2023-05-12T10:25:00;100096.38;;;15.52;69.98
8069;BME280;4077;43.702;24.896;2023-05-12T10:27:26;100094.69;;;15.71;70.70
8069;BME280;4077;43.702;24.896;2023-05-12T10:29:52;100092.97;;;15.86;72.00
8069;BME280;4077;43.702;24.896;2023-05-12T10:32:18;100096.41;;;16.02;71.42
8069;BME280;4077;43.702;24.896;2023-05-12T10:34:45;100080.81;;;15.93;69.10
8069;BME280;4077;43.702;24.896;2023-05-12T10:37:11;100094.66;;;16.12;70.14
8069;BME280;4077;43.702;24.896;2023-05-12T10:39:46;100105.91;;;16.37;69.85
8069;BME280;4077;43.702;24.896;2023-05-12T10:42:15;100092.00;;;16.38;67.28
8069;BME280;4077;43.702;24.896;2023-05-12T10:44:51;100095.44;;;16.57;67.95
8069;BME280;4077;43.702;24.896;2023-05-12T10:47:17;100085.09;;;16.11;67.18
8069;BME280;4077;43.702;24.896;2023-05-12T10:49:43;100086.78;;;16.42;67.95
8069;BME280;4077;43.702;24.896;2023-05-12T10:52:12;100086.78;;;16.42;66.23
8069;BME280;4077;43.702;24.896;2023-05-12T10:54:42;100078.94;;;16.53;67.27
8069;BME280;4077;43.702;24.896;2023-05-12T10:57:12;100083.25;;;16.71;69.22
8069;BME280;4077;43.702;24.896;2023-05-12T10:59:52;100089.34;;;16.62;65.39
8069;BME280;4077;43.702;24.896;2023-05-12T11:02:27;100078.03;;;16.65;64.33
8069;BME280;4077;43.702;24.896;2023-05-12T11:04:58;100083.19;;;16.85;63.43
8069;BME280;4077;43.702;24.896;2023-05-12T11:07:26;100071.03;;;16.88;62.75
8069;BME280;4077;43.702;24.896;2023-05-12T11:09:52;100091.88;;;16.88;62.90
8069;BME280;4077;43.702;24.896;2023-05-12T11:12:18;100085.00;;;16.63;62.14
8069;BME280;4077;43.702;24.896;2023-05-12T11:14:45;100079.72;;;16.84;62.34
8069;BME280;4077;43.702;24.896;2023-05-12T11:17:11;100077.09;;;16.89;62.00
8069;BME280;4077;43.702;24.896;2023-05-12T11:19:37;100088.38;;;16.86;60.03
8069;BME280;4077;43.702;24.896;2023-05-12T11:22:07;100086.72;;;16.76;60.33
8069;BME280;4077;43.702;24.896;2023-05-12T11:24:34;100079.81;;;16.55;59.09
8069;BME280;4077;43.702;24.896;2023-05-12T11:26:59;100076.31;;;16.59;58.23
8069;BME280;4077;43.702;24.896;2023-05-12T11:29:25;100085.81;;;16.79;57.28
8069;BME280;4077;43.702;24.896;2023-05-12T11:31:51;100081.41;;;16.96;56.89
8069;BME280;4077;43.702;24.896;2023-05-12T11:34:22;100086.66;;;16.81;56.23
8069;BME280;4077;43.702;24.896;2023-05-12T11:36:49;100078.88;;;16.65;56.04
8069;BME280;4077;43.702;24.896;2023-05-12T11:39:15;100083.22;;;16.65;56.08
8069;BME280;4077;43.702;24.896;2023-05-12T11:41:41;100080.56;;;16.86;55.94
8069;BME280;4077;43.702;24.896;2023-05-12T11:44:20;100083.97;;;17.04;56.11
8069;BME280;4077;43.702;24.896;2023-05-12T11:46:59;100074.53;;;16.83;56.13
8069;BME280;4077;43.702;24.896;2023-05-12T11:49:26;100072.84;;;16.70;55.60
8069;BME280;4077;43.702;24.896;2023-05-12T11:51:53;100060.69;;;16.61;55.31
8069;BME280;4077;43.702;24.896;2023-05-12T11:54:19;100064.09;;;16.66;55.16
8069;BME280;4077;43.702;24.896;2023-05-12T11:56:48;100065.84;;;16.73;54.49
8069;BME280;4077;43.702;24.896;2023-05-12T11:59:31;100064.03;;;16.87;54.78
8069;BME280;4077;43.702;24.896;2023-05-12T12:01:58;100068.44;;;16.79;54.48
8069;BME280;4077;43.702;24.896;2023-05-12T12:04:50;100072.66;;;17.02;54.47
8069;BME280;4077;43.702;24.896;2023-05-12T12:07:27;100077.03;;;17.03;53.29
8069;BME280;4077;43.702;24.896;2023-05-12T12:09:53;100079.75;;;16.72;52.60
8069;BME280;4077;43.702;24.896;2023-05-12T12:12:18;100064.94;;;16.83;53.21
8069;BME280;4077;43.702;24.896;2023-05-12T12:14:44;100069.22;;;16.93;52.67
8069;BME280;4077;43.702;24.896;2023-05-12T12:17:09;100069.22;;;17.03;53.04
8069;BME280;4077;43.702;24.896;2023-05-12T12:19:35;100077.84;;;17.08;52.12
8069;BME280;4077;43.702;24.896;2023-05-12T12:22:00;100068.19;;;17.22;52.64
8069;BME280;4077;43.702;24.896;2023-05-12T12:24:26;100075.94;;;17.34;51.69
8069;BME280;4077;43.702;24.896;2023-05-12T12:26:51;100063.94;;;17.12;51.62
8069;BME280;4077;43.702;24.896;2023-05-12T12:29:16;100070.03;;;17.11;50.89
8069;BME280;4077;43.702;24.896;2023-05-12T12:31:42;100073.44;;;17.19;51.77
8069;BME280;4077;43.702;24.896;2023-05-12T12:34:08;100073.47;;;17.14;50.62
8069;BME280;4077;43.702;24.896;2023-05-12T12:36:33;100067.38;;;17.17;50.53
8069;BME280;4077;43.702;24.896;2023-05-12T12:39:00;100067.41;;;17.11;50.53
8069;BME280;4077;43.702;24.896;2023-05-12T12:41:26;100069.97;;;17.18;50.54
8069;BME280;4077;43.702;24.896;2023-05-12T12:43:51;100072.56;;;17.23;50.70
8069;BME280;4077;43.702;24.896;2023-05-12T12:46:17;100063.06;;;17.10;51.69
8069;BME280;4077;43.702;24.896;2023-05-12T12:48:43;100076.13;;;17.07;50.83
8069;BME280;4077;43.702;24.896;2023-05-12T12:51:09;100071.94;;;16.64;51.52
8069;BME280;4077;43.702;24.896;2023-05-12T12:53:34;100083.22;;;16.65;51.72
8069;BME280;4077;43.702;24.896;2023-05-12T12:56:00;100048.56;;;16.45;51.32